Latest Weather Observations for Kanagulk

IDV60801

Issued at 1:02 pm EST Wednesday 25 May 2016 (issued every 30 minutes, with the page automatically refreshed every 10 minutes)

About weather observations | Map of weather stations | Latest weather observations for VIC | Other Formats
Station Details ID: 079097 Name: KANAGULK Lat: -37.12 Lon: 141.80 Height: 188.8 m
Data from the previous 72 hours. | See also: Recent months at Kanagulk
Date/Time
EST
Temp
°C
App
Temp
°C
Dew
Point
Rel
Hum
%
Delta-T
°C
Wind Press
QNH
hPa
Press
MSL
hPa
Rain
since 9 am
mm
Dir
 
Spd
km/h
Gust
km/h
Spd
kts
Gust
kts
25/01:00pm 10.3 7.1 10.1 99 0.1 N 17 26 9 14 1009.9 1009.9 1.2
25/12:30pm 10.0 7.3 8.9 93 0.5 NNW 13 20 7 11 1010.5 1010.6 1.0
25/12:00pm 10.3 6.7 8.4 88 0.9 N 17 26 9 14 1011.0 1011.1 0.6
25/11:30am 10.4 6.8 8.2 86 1.1 N 17 24 9 13 1011.6 1011.7 0.6
25/11:00am 10.5 7.2 8.1 85 1.2 N 15 20 8 11 1012.2 1012.3 0.6
25/10:30am 10.4 7.4 7.8 84 1.3 N 13 22 7 12 1012.3 1012.4 0.4
25/10:00am 9.8 6.4 7.6 86 1.1 N 15 22 8 12 1012.3 1012.4 0.4
25/09:30am 9.8 6.7 7.1 83 1.3 N 13 20 7 11 1012.6 1012.7 0.0
25/09:00am 10.3 5.7 6.3 76 1.9 N 20 26 11 14 1012.6 1012.7 0.2
25/08:30am 10.3 6.3 6.5 77 1.8 N 17 28 9 15 1012.8 1012.9 0.2
25/08:00am 10.0 5.4 6.5 79 1.7 N 20 30 11 16 1012.8 1012.9 0.2
25/07:30am 9.9 5.9 6.6 80 1.6 NNE 17 24 9 13 1013.3 1013.3 0.2
25/07:00am 9.8 5.5 6.9 82 1.4 NNE 19 24 10 13 1013.3 1013.3 0.2
25/06:30am 9.7 5.4 7.0 83 1.3 NNE 19 24 10 13 1013.3 1013.3 0.2
25/06:00am 10.0 6.1 7.1 82 1.4 NNE 17 20 9 11 1013.6 1013.6 0.2
25/05:30am 10.4 6.5 6.9 79 1.7 NNE 17 22 9 12 1013.8 1013.8 0.2
25/05:00am 10.3 6.8 7.0 80 1.6 N 15 20 8 11 1014.2 1014.2 0.2
25/04:30am 10.3 6.1 7.4 82 1.4 NNE 19 26 10 14 1013.9 1013.9 0.0
25/04:00am 10.2 6.4 7.6 84 1.3 NNE 17 20 9 11 1014.3 1014.3 0.0
25/03:30am 10.4 6.8 8.2 86 1.1 NNE 17 24 9 13 1014.4 1014.4 0.0
25/03:00am 10.5 6.9 8.4 87 1.0 NNE 17 20 9 11 1014.9 1014.9 0.0
25/02:30am 10.4 6.8 8.5 88 0.9 NNE 17 20 9 11 1015.2 1015.3 0.0
25/02:00am 10.6 7.3 9.4 92 0.6 NNE 17 22 9 12 1015.3 1015.4 0.0
25/01:30am 10.6 7.7 9.8 95 0.4 NNE 15 20 8 11 1015.9 1016.0 0.0
25/01:00am 10.5 7.4 10.2 98 0.2 NNE 17 20 9 11 1016.2 1016.3 0.0
25/12:30am 10.6 7.9 10.4 99 0.1 NNE 15 19 8 10 1016.7 1016.8 0.0
25/12:00am 11.0 8.4 10.8 99 0.1 NNE 15 20 8 11 1017.2 1017.3 0.0
 
Date/Time
EST
Temp
°C
App
Temp
°C
Dew
Point
Rel
Hum
%
Delta-T
°C
Wind Press
QNH
hPa
Press
MSL
hPa
Rain
since 9 am
mm
Dir
 
Spd
km/h
Gust
km/h
Spd
kts
Gust
kts
24/11:30pm 10.7 8.0 10.5 99 0.1 NNE 15 19 8 10 1017.1 1017.2 0.0
24/11:00pm 11.1 8.6 10.9 99 0.1 NNE 15 19 8 10 1017.5 1017.6 0.0
24/10:30pm 11.4 9.3 11.2 99 0.1 N 13 19 7 10 1017.8 1017.9 0.0
24/10:00pm 10.9 9.4 10.7 99 0.1 NNE 9 13 5 7 1018.1 1018.2 0.0
24/09:30pm 10.4 9.2 10.2 99 0.1 NE 7 9 4 5 1018.1 1018.2 0.0
24/09:00pm 10.2 8.9 10.1 99 0.1 ENE 7 9 4 5 1018.0 1018.1 0.0
24/08:30pm 10.8 9.7 10.6 99 0.1 ENE 7 9 4 5 1018.5 1018.6 0.0
24/08:00pm 11.3 10.0 11.1 99 0.1 NE 9 11 5 6 1019.0 1019.0 0.0
24/07:30pm 11.2 10.4 11.0 99 0.1 NE 6 7 3 4 1019.1 1019.1 0.0
24/07:00pm 12.0 12.6 11.8 99 0.1 CALM 0 0 0 0 1019.2 1019.2 0.0
24/06:30pm 12.8 13.6 12.5 98 0.2 CALM 0 0 0 0 1019.2 1019.2 0.0
24/06:00pm 13.2 12.8 12.4 95 0.4 S 6 9 3 5 1019.3 1019.3 0.0
24/05:30pm 14.0 13.5 12.2 89 1.0 SW 6 11 3 6 1019.3 1019.3 0.0
24/05:00pm 15.0 14.8 11.8 81 1.7 W 4 9 2 5 1019.3 1019.3 0.0
24/04:30pm 15.5 16.1 11.9 79 2.0 CALM 0 0 0 0 1019.1 1019.1 0.0
24/04:00pm 15.7 15.9 11.7 77 2.2 NNW 2 9 1 5 1018.9 1018.9 0.0
24/03:30pm 16.8 17.0 11.9 73 2.7 WNW 2 7 1 4 1019.0 1019.0 0.0
24/03:00pm 16.1 15.3 11.7 75 2.4 WNW 7 13 4 7 1019.4 1019.5 0.0
24/02:30pm 15.7 15.0 11.5 76 2.3 W 6 11 3 6 1019.5 1019.6 0.0
24/02:00pm 15.8 14.7 12.0 78 2.1 NW 9 15 5 8 1019.6 1019.7 0.0
24/01:30pm 15.4 14.9 12.2 81 1.8 W 6 11 3 6 1019.9 1020.0 0.0
24/01:00pm 15.0 14.2 11.8 81 1.7 NW 7 13 4 7 1020.2 1020.3 0.0
24/12:30pm 15.1 14.8 11.3 78 2.1 WNW 4 11 2 6 1020.6 1020.7 0.0
24/12:00pm 15.8 15.2 12.2 79 2.0 N 7 13 4 7 1021.2 1021.3 0.0
24/11:30am 15.2 15.6 13.7 91 0.8 W 4 9 2 5 1021.8 1021.9 0.0
24/11:00am 14.3 15.2 14.1 99 0.1 WNW 2 7 1 4 1022.1 1022.2 0.0
24/10:30am 13.5 13.8 13.5 100 0.0 NW 4 7 2 4 1022.4 1022.5 0.0
24/10:00am 12.6 12.3 12.6 100 0.0 NNW 6 9 3 5 1022.6 1022.7 0.0
24/09:30am 12.4 13.2 12.4 100 0.0 CALM 0 6 0 3 1022.6 1022.7 0.0
24/09:00am 12.0 12.6 12.0 100 0.0 CALM 0 0 0 0 1022.5 1022.6 2.0
24/08:30am 11.3 11.7 11.3 100 0.0 CALM 0 0 0 0 1022.5 1022.6 2.0
24/08:00am 11.0 11.3 11.0 100 0.0 CALM 0 0 0 0 1022.4 1022.5 2.0
24/07:30am 11.2 11.6 11.2 100 0.0 CALM 0 0 0 0 1022.1 1022.2 1.8
24/07:00am 11.1 11.5 11.1 100 0.0 CALM 0 0 0 0 1021.8 1021.9 1.8
24/06:30am 11.1 11.5 11.1 100 0.0 CALM 0 0 0 0 1021.3 1021.4 1.8
24/06:00am 11.0 11.3 11.0 100 0.0 CALM 0 0 0 0 1021.1 1021.2 1.8
24/05:30am 11.0 11.3 11.0 100 0.0 CALM 0 0 0 0 1020.9 1021.0 1.8
24/05:00am 11.0 11.3 11.0 100 0.0 CALM 0 0 0 0 1021.0 1021.1 1.8
24/04:30am 10.9 11.2 10.9 100 0.0 CALM 0 0 0 0 1020.7 1020.8 1.8
24/04:00am 10.8 11.1 10.8 100 0.0 CALM 0 0 0 0 1020.7 1020.8 1.8
24/03:30am 10.7 10.9 10.7 100 0.0 CALM 0 0 0 0 1020.9 1021.0 1.8
24/03:00am 10.7 10.1 10.5 99 0.1 WNW 4 7 2 4 1021.0 1021.1 1.8
24/02:30am 10.4 10.5 10.2 99 0.1 CALM 0 0 0 0 1021.1 1021.2 1.8
24/02:00am 10.6 9.6 10.4 99 0.1 WNW 6 9 3 5 1021.0 1021.1 1.8
24/01:30am 10.4 9.7 10.2 99 0.1 W 4 9 2 5 1021.0 1021.1 1.8
24/01:00am 10.1 9.0 10.0 99 0.1 W 6 9 3 5 1021.1 1021.2 1.8
24/12:30am 10.5 9.5 10.3 99 0.1 WNW 6 7 3 4 1021.1 1021.2 1.8
24/12:00am 10.5 9.5 10.3 99 0.1 NW 6 7 3 4 1021.4 1021.5 1.8
 
Date/Time
EST
Temp
°C
App
Temp
°C
Dew
Point
Rel
Hum
%
Delta-T
°C
Wind Press
QNH
hPa
Press
MSL
hPa
Rain
since 9 am
mm
Dir
 
Spd
km/h
Gust
km/h
Spd
kts
Gust
kts
23/11:30pm 10.3 10.4 10.1 99 0.1 CALM 0 2 0 1 1021.8 1021.9 1.8
23/11:00pm 10.6 10.0 10.4 99 0.1 W 4 9 2 5 1021.8 1021.9 1.8
23/10:30pm 10.4 9.4 10.2 99 0.1 W 6 7 3 4 1021.8 1021.9 1.8
23/10:00pm 10.3 9.2 10.1 99 0.1 WNW 6 9 3 5 1021.7 1021.8 1.8
23/09:30pm 10.2 9.1 10.1 99 0.1 W 6 9 3 5 1021.6 1021.7 1.8
23/09:00pm 10.2 9.1 10.1 99 0.1 W 6 11 3 6 1021.4 1021.5 1.6
23/08:30pm 9.8 8.6 9.7 99 0.1 W 6 9 3 5 1021.2 1021.3 1.6
23/08:00pm 10.1 9.0 10.0 99 0.1 W 6 11 3 6 1020.9 1021.0 1.6
23/07:30pm 10.4 9.1 9.9 97 0.3 W 7 13 4 7 1020.9 1021.0 1.6
23/07:00pm 10.8 9.6 10.2 96 0.3 W 7 11 4 6 1020.8 1020.9 1.6
23/06:30pm 11.2 9.7 10.4 95 0.4 W 9 13 5 7 1020.5 1020.6 1.6
23/06:00pm 11.3 9.4 10.5 95 0.4 W 11 22 6 12 1020.1 1020.2 1.6
23/05:30pm 11.7 10.0 11.1 96 0.3 W 11 19 6 10 1019.8 1019.9 1.6
23/05:00pm 12.2 10.7 11.9 98 0.2 W 11 19 6 10 1019.4 1019.5 1.6
23/04:30pm 12.5 10.3 12.0 97 0.3 WSW 15 24 8 13 1019.3 1019.3 1.6
23/04:00pm 13.2 10.8 11.4 89 1.0 W 15 24 8 13 1019.0 1019.0 1.2
23/03:30pm 13.8 10.6 10.0 78 2.0 WNW 17 35 9 19 1018.9 1018.9 1.2
23/03:00pm 14.9 13.0 11.9 82 1.6 WNW 13 20 7 11 1018.6 1018.7 1.2
23/02:30pm 13.6 11.8 12.2 91 0.8 WNW 13 26 7 14 1018.9 1018.9 1.2
23/02:00pm 12.2 9.8 11.4 95 0.4 NW 15 28 8 15 1019.3 1019.3 1.2
23/01:30pm 14.2 11.4 8.6 69 2.8 WNW 13 26 7 14 1019.0 1019.0 0.0
23/01:00pm 14.2 11.0 8.4 68 2.9 WNW 15 24 8 13 1019.2 1019.2 0.0
23/12:30pm 14.2 10.4 7.7 65 3.2 WNW 17 30 9 16 1019.4 1019.5 0.0
23/12:00pm 13.8 10.1 8.0 68 2.9 NW 17 26 9 14 1019.7 1019.8 0.0
23/11:30am 13.1 9.7 7.5 69 2.8 NW 15 26 8 14 1020.3 1020.4 0.0
23/11:00am 12.9 9.5 7.6 70 2.6 NW 15 24 8 13 1020.5 1020.6 0.0
23/10:30am 12.4 10.1 7.3 71 2.5 WNW 9 17 5 9 1020.4 1020.5 0.0
23/10:00am 11.5 9.2 7.6 77 1.9 WNW 9 17 5 9 1020.2 1020.3 0.0
23/09:30am 10.5 8.6 7.4 81 1.5 WNW 7 13 4 7 1019.9 1020.0 0.0
23/09:00am 9.4 7.0 7.2 86 1.0 WNW 9 17 5 9 1019.7 1019.8 6.2
23/08:30am 9.0 6.7 7.5 90 0.7 WNW 9 17 5 9 1019.4 1019.5 6.2
23/08:00am 7.9 5.4 6.7 92 0.6 W 9 17 5 9 1018.8 1018.8 6.2
23/07:30am 7.9 5.4 6.4 90 0.7 NW 9 26 5 14 1018.2 1018.3 6.2
23/07:00am 8.6 5.8 6.9 89 0.8 WNW 11 17 6 9 1017.6 1017.7 6.2
23/06:30am 8.3 6.3 6.9 91 0.7 W 7 11 4 6 1017.1 1017.2 6.2
23/06:00am 8.4 5.9 6.5 88 0.9 WSW 9 17 5 9 1016.8 1016.9 6.2
23/05:30am 9.1 4.6 7.1 87 0.9 W 20 35 11 19 1016.0 1016.1 6.2
23/05:00am 9.0 5.9 7.1 88 0.9 W 13 20 7 11 1015.6 1015.7 6.2
23/04:30am 9.4 5.6 7.7 89 0.8 W 17 30 9 16 1014.9 1014.9 6.2
23/04:00am 10.8 6.6 8.2 84 1.3 WNW 20 44 11 24 1014.1 1014.1 5.2
23/03:30am 10.9 7.0 8.5 85 1.2 WNW 19 32 10 17 1013.8 1013.8 5.2
23/03:00am 10.9 7.2 7.8 81 1.5 WNW 17 35 9 19 1013.5 1013.5 5.2
23/02:30am 11.7 8.1 8.2 79 1.7 WNW 17 30 9 16 1013.3 1013.3 5.2
23/02:00am 11.5 9.1 10.1 91 0.7 WNW 13 24 7 13 1012.8 1012.9 5.2
23/01:30am 11.8 9.6 10.9 94 0.5 NW 13 24 7 13 1012.6 1012.7 5.2
23/01:00am 12.2 9.8 11.4 95 0.4 NW 15 28 8 15 1012.3 1012.4 5.2
23/12:30am 11.9 10.2 11.3 96 0.3 NNW 11 20 6 11 1012.0 1012.1 5.2
23/12:00am 11.9 9.5 11.3 96 0.3 NW 15 26 8 14 1011.9 1012.0 5.2
 
Date/Time
EST
Temp
°C
App
Temp
°C
Dew
Point
Rel
Hum
%
Delta-T
°C
Wind Press
QNH
hPa
Press
MSL
hPa
Rain
since 9 am
mm
Dir
 
Spd
km/h
Gust
km/h
Spd
kts
Gust
kts
22/11:30pm 11.7 10.1 11.4 98 0.2 NW 11 22 6 12 1011.2 1011.3 5.2
22/11:00pm 11.7 9.7 11.4 98 0.2 NW 13 20 7 11 1011.8 1011.9 5.2
22/10:30pm 11.9 9.9 11.6 98 0.2 NW 13 22 7 12 1011.7 1011.8 4.8
22/10:00pm 12.3 9.7 12.1 99 0.1 WNW 17 26 9 14 1011.8 1011.9 4.4
22/09:30pm 13.8 10.3 13.5 98 0.2 NW 24 39 13 21 1011.5 1011.6 2.8
22/09:00pm 14.4 12.1 14.2 99 0.1 NW 19 37 10 20 1011.1 1011.2 2.8
22/08:30pm 14.5 12.9 14.0 97 0.3 NNW 15 24 8 13 1011.0 1011.1 1.8
22/08:00pm 14.6 13.2 13.3 92 0.7 NNW 13 22 7 12 1010.9 1011.0 1.6
22/07:30pm 14.8 13.7 13.0 89 1.0 NNW 11 17 6 9 1010.4 1010.4 1.4
22/07:00pm 14.9 13.6 12.6 86 1.3 NNW 11 17 6 9 1010.8 1010.9 1.4
22/06:30pm 15.2 13.5 12.5 84 1.5 NNW 13 20 7 11 1010.8 1010.9 1.2
22/06:00pm 15.4 14.4 12.2 81 1.8 NNW 9 20 5 11 1010.3 1010.3 1.0
22/05:30pm 17.1 14.2 10.9 67 3.4 WNW 17 32 9 17 1010.4 1010.4 0.4
22/05:00pm 20.1 17.9 9.4 50 5.7 NNW 11 20 6 11 1009.5 1009.5 0.0
22/04:30pm 20.2 16.4 9.7 51 5.7 N 20 26 11 14 1008.8 1008.8 0.0
22/04:00pm 20.3 16.4 9.5 50 5.8 N 20 32 11 17 1009.3 1009.3 0.0
22/03:30pm 20.9 17.1 9.8 49 6.0 N 20 30 11 16 1009.4 1009.4 0.0
22/03:00pm 20.9 15.9 9.5 48 6.2 N 26 35 14 19 1009.3 1009.3 0.0
22/02:30pm 20.7 15.3 9.6 49 6.0 N 28 41 15 22 1009.5 1009.5 0.0
22/02:00pm 20.4 15.1 9.9 51 5.7 N 28 39 15 21 1009.9 1009.9 0.0
22/01:37pm 20.7 14.1 9.9 50 5.9 N 35 54 19 29 1009.6 1009.6 0.0
22/01:30pm 20.4 13.4 9.9 51 5.7 N 37 54 20 29 1009.4 1009.4 0.0
22/01:26pm 20.3 14.0 9.8 51 5.7 N 33 54 18 29 1009.6 1009.6 0.0

Other Formats:

Comma delimited format used in spreadsheet applications
http://www.bom.gov.au/fwo/IDV60801/IDV60801.95827.axf

JavaScript Object Notation format (JSON) in row-major order
http://www.bom.gov.au/fwo/IDV60801/IDV60801.95827.json